createdAt,value
2022-09-04T00:01:05.508Z,17.80
2022-09-04T00:03:47.555Z,17.80
2022-09-04T00:06:20.509Z,17.80
2022-09-04T00:09:19.011Z,17.80
2022-09-04T00:11:53.244Z,17.70
2022-09-04T00:14:50.744Z,17.70
2022-09-04T00:17:37.595Z,17.70
2022-09-04T00:20:14.395Z,17.70
2022-09-04T00:22:52.567Z,17.70
2022-09-04T00:25:40.388Z,17.70
2022-09-04T00:28:20.191Z,17.70
2022-09-04T00:30:56.189Z,17.60
2022-09-04T00:33:34.874Z,17.70
2022-09-04T00:36:04.650Z,17.60
2022-09-04T00:38:47.233Z,17.60
2022-09-04T00:41:39.123Z,17.60
2022-09-04T00:44:09.144Z,17.60
2022-09-04T00:46:42.015Z,17.60
2022-09-04T00:49:42.264Z,17.40
2022-09-04T00:52:58.504Z,17.30
2022-09-04T00:55:52.750Z,17.30
2022-09-04T00:58:31.937Z,17.30
2022-09-04T01:01:00.040Z,17.30
2022-09-04T01:03:30.306Z,17.30
2022-09-04T01:06:13.104Z,17.20
2022-09-04T01:09:01.356Z,17.10
2022-09-04T01:11:43.490Z,17.10
2022-09-04T01:14:39.414Z,17.10
2022-09-04T01:17:26.023Z,17.10
2022-09-04T01:20:27.519Z,17.00
2022-09-04T01:23:40.424Z,17.00
2022-09-04T01:26:09.927Z,16.90
2022-09-04T01:29:06.309Z,16.90
2022-09-04T01:31:44.642Z,16.80
2022-09-04T01:34:20.838Z,16.70
2022-09-04T01:36:47.784Z,16.70
2022-09-04T01:39:16.097Z,16.70
2022-09-04T01:41:50.574Z,16.70
2022-09-04T01:44:17.559Z,16.70
2022-09-04T01:47:09.381Z,16.70
2022-09-04T01:49:43.589Z,16.60
2022-09-04T01:52:16.585Z,16.50
2022-09-04T01:54:49.942Z,16.50
2022-09-04T01:57:28.823Z,16.50
2022-09-04T01:59:58.536Z,16.50
2022-09-04T02:02:54.323Z,16.40
2022-09-04T02:05:30.289Z,16.30
2022-09-04T02:08:06.390Z,16.30
2022-09-04T02:10:58.089Z,16.30
2022-09-04T02:13:40.469Z,16.20
2022-09-04T02:16:37.148Z,16.20
2022-09-04T02:19:24.504Z,16.00
2022-09-04T02:22:23.809Z,16.00
2022-09-04T02:25:02.854Z,16.00
2022-09-04T02:27:41.603Z,16.00
2022-09-04T02:30:10.728Z,15.90
2022-09-04T02:32:54.176Z,15.90
2022-09-04T02:35:24.071Z,15.90
2022-09-04T02:38:28.964Z,15.90
2022-09-04T02:41:06.398Z,15.90
2022-09-04T02:43:52.198Z,15.90
2022-09-04T02:46:33.531Z,15.90
2022-09-04T02:49:37.595Z,15.80
2022-09-04T02:52:13.770Z,15.70
2022-09-04T02:55:08.566Z,15.70
2022-09-04T02:57:41.704Z,15.60
2022-09-04T03:00:20.986Z,15.60
2022-09-04T03:03:07.149Z,15.60
2022-09-04T03:05:50.197Z,15.70
2022-09-04T03:08:53.816Z,15.70
2022-09-04T03:11:52.459Z,15.70
2022-09-04T03:14:49.315Z,15.60
2022-09-04T03:17:25.064Z,15.50
2022-09-04T03:20:03.753Z,15.50
2022-09-04T03:22:45.786Z,15.50
2022-09-04T03:25:51.364Z,15.50
2022-09-04T03:28:34.972Z,15.50
2022-09-04T03:31:22.995Z,15.40
2022-09-04T03:34:22.392Z,15.40
2022-09-04T03:37:06.271Z,15.40
2022-09-04T03:39:46.281Z,15.40
2022-09-04T03:42:42.520Z,15.40
2022-09-04T03:45:25.923Z,15.30
2022-09-04T03:48:26.576Z,15.30
2022-09-04T03:51:17.388Z,15.30
2022-09-04T03:54:15.322Z,15.30
2022-09-04T03:57:20.163Z,15.30
2022-09-04T04:00:11.186Z,15.30
2022-09-04T04:02:56.291Z,15.20
2022-09-04T04:05:41.409Z,15.20
2022-09-04T04:08:33.122Z,15.20
2022-09-04T04:11:35.155Z,15.10
2022-09-04T04:14:46.541Z,15.10
2022-09-04T04:17:20.289Z,15.00
2022-09-04T04:20:04.563Z,15.00
2022-09-04T04:22:55.465Z,15.00
2022-09-04T04:25:52.389Z,14.90
2022-09-04T04:28:31.732Z,15.00
2022-09-04T04:31:07.972Z,14.90
2022-09-04T04:33:55.430Z,14.70
2022-09-04T04:36:37.587Z,14.70
2022-09-04T04:39:14.561Z,14.70
2022-09-04T04:42:06.526Z,14.70
2022-09-04T04:45:08.364Z,14.70
2022-09-04T04:47:50.120Z,14.70
2022-09-04T04:50:36.866Z,14.70
2022-09-04T04:53:33.087Z,14.70
2022-09-04T04:56:15.264Z,14.70
2022-09-04T04:58:42.499Z,14.70
2022-09-04T05:01:35.120Z,14.70
2022-09-04T05:04:11.545Z,14.60
2022-09-04T05:06:49.869Z,14.60
2022-09-04T05:09:33.943Z,14.50
2022-09-04T05:12:48.544Z,14.50
2022-09-04T05:16:05.087Z,14.50
2022-09-04T05:18:47.003Z,14.60
2022-09-04T05:21:38.714Z,14.60
2022-09-04T05:24:31.946Z,14.60
2022-09-04T05:27:11.286Z,14.70
2022-09-04T05:30:17.185Z,14.70
2022-09-04T05:33:13.646Z,14.70
2022-09-04T05:35:47.712Z,14.80
2022-09-04T05:39:05.713Z,14.90
2022-09-04T05:41:58.293Z,14.90
2022-09-04T05:44:50.369Z,14.90
2022-09-04T05:47:48.552Z,15.00
2022-09-04T05:50:50.500Z,15.00
2022-09-04T05:53:39.847Z,15.10
2022-09-04T05:56:38.069Z,15.20
2022-09-04T05:59:10.206Z,15.20
2022-09-04T06:02:20.063Z,15.30
2022-09-04T06:05:13.656Z,15.30
2022-09-04T06:08:31.310Z,15.40
2022-09-04T06:11:51.839Z,15.50
2022-09-04T06:14:42.866Z,15.60
2022-09-04T06:17:52.085Z,15.70
2022-09-04T06:20:33.723Z,15.70
2022-09-04T06:23:24.614Z,15.80
2022-09-04T06:26:06.707Z,15.90
2022-09-04T06:29:05.262Z,15.90
2022-09-04T06:32:18.740Z,16.00
2022-09-04T06:35:16.810Z,16.00
2022-09-04T06:38:10.996Z,16.10
2022-09-04T06:40:50.582Z,16.30
2022-09-04T06:43:46.246Z,16.50
2022-09-04T06:46:30.149Z,16.50
2022-09-04T06:49:12.291Z,16.60
2022-09-04T06:52:26.990Z,16.60
2022-09-04T06:55:09.379Z,16.70
2022-09-04T06:57:55.409Z,16.80
2022-09-04T07:00:40.743Z,16.90
2022-09-04T07:03:19.608Z,17.10
2022-09-04T07:06:12.829Z,17.10
2022-09-04T07:09:11.993Z,17.10
2022-09-04T07:11:48.391Z,17.20
2022-09-04T07:14:58.854Z,17.50
2022-09-04T07:17:53.553Z,17.70
2022-09-04T07:20:32.617Z,17.80
2022-09-04T07:23:33.573Z,18.00
2022-09-04T07:26:21.662Z,18.20
2022-09-04T07:29:25.144Z,18.40
2022-09-04T07:32:08.687Z,18.50
2022-09-04T07:35:01.140Z,18.70
2022-09-04T07:38:02.494Z,18.80
2022-09-04T07:41:00.555Z,18.90
2022-09-04T07:43:58.848Z,19.00
2022-09-04T07:46:32.612Z,19.20
2022-09-04T07:49:27.251Z,19.40
2022-09-04T07:52:50.623Z,19.60
2022-09-04T07:55:25.753Z,19.80
2022-09-04T07:58:08.264Z,20.00
2022-09-04T08:00:57.702Z,20.00
2022-09-04T08:03:54.531Z,20.10
2022-09-04T08:06:31.858Z,20.20
2022-09-04T08:09:31.584Z,20.30
2022-09-04T08:12:22.264Z,20.50
2022-09-04T08:14:52.890Z,20.70
2022-09-04T08:17:46.894Z,20.90
2022-09-04T08:20:57.889Z,21.10
2022-09-04T08:24:14.264Z,21.20
2022-09-04T08:27:20.510Z,21.20
2022-09-04T08:30:04.615Z,21.30
2022-09-04T08:33:03.007Z,21.30
2022-09-04T08:35:29.918Z,21.40
2022-09-04T08:38:24.308Z,21.40
2022-09-04T08:41:07.030Z,21.60
2022-09-04T08:44:06.012Z,21.80
2022-09-04T08:46:58.328Z,21.80
2022-09-04T08:49:31.278Z,21.80
2022-09-04T08:52:18.450Z,22.10
2022-09-04T08:55:03.345Z,22.20
2022-09-04T08:58:18.565Z,22.30
2022-09-04T09:01:13.143Z,22.40
2022-09-04T09:04:02.011Z,22.60
2022-09-04T09:06:44.533Z,22.60
2022-09-04T09:09:32.821Z,22.50
2022-09-04T09:12:09.170Z,22.60
2022-09-04T09:14:47.706Z,22.60
2022-09-04T09:17:37.409Z,22.50
2022-09-04T09:20:37.940Z,22.50
2022-09-04T09:23:52.307Z,22.50
2022-09-04T09:26:34.035Z,22.60
2022-09-04T09:29:20.237Z,22.70
2022-09-04T09:32:09.163Z,22.80
2022-09-04T09:35:02.924Z,23.00
2022-09-04T09:38:05.256Z,23.40
2022-09-04T09:41:06.534Z,23.40
2022-09-04T09:43:51.406Z,23.60
2022-09-04T09:46:30.360Z,23.50
2022-09-04T09:49:41.756Z,23.60
2022-09-04T09:52:21.579Z,24.00
2022-09-04T09:55:23.267Z,24.30
2022-09-04T09:58:21.374Z,24.60
2022-09-04T10:01:08.610Z,24.70
2022-09-04T10:03:48.179Z,24.60
2022-09-04T10:06:45.496Z,24.50
2022-09-04T10:09:24.475Z,24.40
2022-09-04T10:12:29.084Z,24.50
2022-09-04T10:15:22.993Z,24.60
2022-09-04T10:18:35.293Z,24.30
2022-09-04T10:21:17.137Z,24.70
2022-09-04T10:24:07.352Z,24.60
2022-09-04T10:26:50.189Z,24.70
2022-09-04T10:29:41.842Z,24.90
2022-09-04T10:32:11.749Z,24.80
2022-09-04T10:35:00.542Z,25.00
2022-09-04T10:37:33.412Z,24.90
2022-09-04T10:40:43.979Z,25.00
2022-09-04T10:43:40.517Z,25.20
2022-09-04T10:46:33.662Z,25.10
2022-09-04T10:49:06.883Z,25.50
2022-09-04T10:51:56.475Z,25.50
2022-09-04T10:54:38.461Z,25.80
2022-09-04T10:57:27.773Z,25.90
2022-09-04T11:00:01.050Z,25.80
2022-09-04T11:02:36.995Z,25.70
2022-09-04T11:05:37.895Z,25.90
2022-09-04T11:08:16.820Z,26.20
2022-09-04T11:11:05.930Z,25.90
2022-09-04T11:14:08.251Z,26.00
2022-09-04T11:16:59.977Z,26.20
2022-09-04T11:20:18.244Z,26.10
2022-09-04T11:22:48.590Z,26.00
2022-09-04T11:25:42.837Z,26.20
2022-09-04T11:28:31.263Z,26.10
2022-09-04T11:31:21.096Z,26.20
2022-09-04T11:34:15.918Z,26.20
2022-09-04T11:37:20.095Z,26.00
2022-09-04T11:40:01.423Z,26.20
2022-09-04T11:42:44.789Z,26.20
2022-09-04T11:45:48.861Z,26.20
2022-09-04T11:48:20.185Z,26.00
2022-09-04T11:51:01.703Z,25.90
2022-09-04T11:53:49.924Z,25.90
2022-09-04T11:56:41.453Z,25.90
2022-09-04T11:59:59.156Z,25.90
2022-09-04T12:02:44.791Z,25.90
2022-09-04T12:05:43.252Z,25.90
2022-09-04T12:08:24.304Z,25.70
2022-09-04T12:11:22.594Z,25.60
2022-09-04T12:13:59.035Z,25.50
2022-09-04T12:16:57.291Z,25.20
2022-09-04T12:19:43.519Z,25.20
2022-09-04T12:22:55.300Z,25.30
2022-09-04T12:25:41.374Z,25.30
2022-09-04T12:28:27.173Z,25.10
2022-09-04T12:30:54.150Z,25.00
2022-09-04T12:33:30.575Z,24.90
2022-09-04T12:36:21.884Z,24.90
2022-09-04T12:39:12.172Z,24.90
2022-09-04T12:42:01.554Z,24.90
2022-09-04T12:44:46.863Z,25.00
2022-09-04T12:47:22.707Z,25.20
2022-09-04T12:49:58.264Z,25.10
2022-09-04T12:52:47.957Z,25.10
2022-09-04T12:55:41.818Z,24.80
2022-09-04T12:58:14.878Z,24.80
2022-09-04T13:01:11.543Z,24.80
2022-09-04T13:03:44.556Z,24.80
2022-09-04T13:06:18.233Z,24.90
2022-09-04T13:09:20.317Z,24.80
2022-09-04T13:55:02.677Z,24.60
2022-09-04T13:57:38.620Z,24.60
2022-09-04T14:00:08.077Z,24.40
2022-09-04T14:02:36.874Z,24.30
2022-09-04T14:05:13.603Z,24.10
2022-09-04T14:07:47.659Z,24.20
2022-09-04T14:10:21.232Z,24.10
2022-09-04T14:12:54.587Z,23.90
2022-09-04T14:15:33.596Z,23.90
2022-09-04T14:18:08.310Z,24.00
2022-09-04T14:20:51.807Z,24.00
2022-09-04T14:23:40.522Z,24.20
2022-09-04T14:26:07.532Z,24.30
2022-09-04T14:29:07.339Z,24.10
2022-09-04T14:31:55.676Z,24.20
2022-09-04T14:34:41.499Z,23.60
2022-09-04T14:37:36.782Z,23.30
2022-09-04T14:40:12.936Z,23.10
2022-09-04T14:43:04.394Z,23.10
2022-09-04T14:45:55.103Z,23.30
2022-09-04T14:48:24.244Z,23.40
2022-09-04T14:51:00.074Z,23.30
2022-09-04T14:53:34.371Z,23.10
2022-09-04T14:56:07.551Z,23.00
2022-09-04T14:58:50.541Z,22.90
2022-09-04T15:01:25.956Z,22.80
2022-09-04T15:04:16.122Z,23.00
2022-09-04T15:07:10.321Z,23.10
2022-09-04T15:09:41.130Z,23.00
2022-09-04T15:12:27.077Z,23.00
2022-09-04T15:15:18.614Z,22.90
2022-09-04T15:17:53.040Z,22.60
2022-09-04T15:20:24.491Z,22.70
2022-09-04T15:22:54.705Z,22.80
2022-09-04T15:25:54.720Z,22.40
2022-09-04T15:28:34.233Z,22.20
2022-09-04T15:31:15.974Z,22.00
2022-09-04T15:33:46.848Z,22.10
2022-09-04T15:36:23.400Z,22.20
2022-09-04T15:39:05.978Z,22.10
2022-09-04T15:41:39.781Z,22.30
2022-09-04T15:44:18.789Z,22.30
2022-09-04T15:47:03.864Z,22.30
2022-09-04T15:49:52.646Z,22.10
2022-09-04T15:52:44.935Z,22.00
2022-09-04T15:55:24.256Z,22.00
2022-09-04T15:58:33.523Z,21.90
2022-09-04T16:01:06.437Z,21.90
2022-09-04T16:03:45.696Z,22.10
2022-09-04T16:06:32.322Z,22.00
2022-09-04T16:09:07.710Z,21.90
2022-09-04T16:11:41.719Z,21.80
2022-09-04T16:14:44.729Z,21.80
2022-09-04T16:17:27.174Z,21.90
2022-09-04T16:20:09.899Z,21.90
2022-09-04T16:22:47.818Z,21.90
2022-09-04T16:25:43.178Z,21.80
2022-09-04T16:28:10.185Z,21.80
2022-09-04T16:30:47.109Z,21.80
2022-09-04T16:33:45.813Z,21.70
2022-09-04T16:36:28.501Z,21.70
2022-09-04T16:39:01.528Z,21.60
2022-09-04T16:41:31.472Z,21.50
2022-09-04T16:44:11.128Z,21.40
2022-09-04T16:47:03.075Z,21.40
2022-09-04T16:49:34.020Z,21.40
2022-09-04T16:52:22.041Z,21.30
2022-09-04T16:55:02.583Z,21.30
2022-09-04T16:57:38.067Z,21.30
2022-09-04T17:00:13.753Z,21.30
2022-09-04T17:02:53.863Z,21.30
2022-09-04T17:05:35.742Z,21.30
2022-09-04T17:08:13.489Z,21.30
2022-09-04T17:10:49.754Z,21.20
2022-09-04T17:13:37.061Z,21.20
2022-09-04T17:16:18.703Z,21.10
2022-09-04T17:18:54.812Z,20.90
2022-09-04T17:26:26.804Z,20.80
2022-09-04T17:29:00.565Z,20.70
2022-09-04T17:29:11.748Z,20.60
2022-09-04T17:30:44.710Z,20.60
2022-09-04T17:37:23.598Z,20.60
2022-09-04T17:40:50.560Z,20.50
2022-09-04T17:40:56.465Z,20.60
2022-09-04T17:43:14.846Z,20.30
2022-09-04T17:45:46.551Z,20.10
2022-09-04T17:48:26.775Z,20.10
2022-09-04T17:50:58.422Z,20.10
2022-09-04T17:53:34.088Z,20.10
2022-09-04T17:56:18.141Z,20.00
2022-09-04T17:59:07.981Z,19.80
2022-09-04T18:02:01.370Z,19.70
2022-09-04T18:04:35.544Z,19.70
2022-09-04T18:08:07.339Z,19.70
2022-09-04T18:10:32.695Z,19.60
2022-09-04T18:13:36.348Z,19.50
2022-09-04T18:16:10.456Z,19.40
2022-09-04T18:18:54.657Z,19.40
2022-09-04T18:21:31.599Z,19.40
2022-09-04T18:24:26.661Z,19.30
2022-09-04T18:27:07.819Z,19.30
2022-09-04T18:32:57.627Z,19.30
2022-09-04T18:37:17.530Z,19.20
2022-09-04T18:37:18.591Z,19.00
2022-09-04T18:39:08.337Z,19.00
2022-09-04T18:50:25.139Z,18.90
2022-09-04T18:50:36.248Z,18.90
2022-09-04T18:50:40.488Z,18.90
2022-09-04T18:53:43.486Z,18.80
2022-09-04T18:56:29.043Z,18.80
2022-09-04T18:59:33.110Z,18.80
2022-09-04T19:02:18.710Z,18.70
2022-09-04T19:05:03.541Z,18.70
2022-09-04T19:07:35.601Z,18.60
2022-09-04T19:10:02.954Z,18.60
2022-09-04T19:12:47.137Z,18.50
2022-09-04T19:15:46.093Z,18.40
2022-09-04T19:18:27.564Z,18.40
2022-09-04T19:21:12.541Z,18.50
2022-09-04T19:23:53.564Z,18.40
2022-09-04T19:26:52.931Z,18.30
2022-09-04T19:29:30.809Z,18.30
2022-09-04T19:32:08.610Z,18.30
2022-09-04T19:35:08.494Z,18.20
2022-09-04T19:40:38.429Z,18.20
2022-09-04T19:46:04.424Z,18.20
2022-09-04T19:46:08.582Z,18.20
2022-09-04T19:47:28.433Z,18.10
2022-09-04T19:53:22.117Z,18.10
2022-09-04T19:53:37.696Z,18.10
2022-09-04T19:57:00.058Z,18.10
2022-09-04T19:59:45.376Z,18.00
2022-09-04T20:02:44.322Z,17.90
2022-09-04T20:05:29.315Z,17.80
2022-09-04T20:07:56.478Z,17.70
2022-09-04T20:10:46.075Z,17.70
2022-09-04T20:13:27.693Z,17.70
2022-09-04T20:16:29.188Z,17.70
2022-09-04T20:19:27.554Z,17.60
2022-09-04T20:22:06.528Z,17.60
2022-09-04T20:25:01.768Z,17.60
2022-09-04T20:27:40.975Z,17.50
2022-09-04T20:30:21.254Z,17.50
2022-09-04T20:33:11.572Z,17.40
2022-09-04T20:35:55.611Z,17.40
2022-09-04T20:38:30.721Z,17.40
2022-09-04T20:41:03.629Z,17.40
2022-09-04T20:44:03.596Z,17.30
2022-09-04T20:51:36.227Z,17.30
2022-09-04T20:52:52.615Z,17.20
2022-09-04T20:52:55.058Z,17.30
2022-09-04T20:55:32.199Z,17.20
2022-09-04T21:02:45.923Z,17.20
2022-09-04T21:03:19.846Z,17.20
2022-09-04T21:03:57.414Z,17.10
2022-09-04T21:07:01.995Z,17.00
2022-09-04T21:09:54.900Z,17.00
2022-09-04T21:12:40.055Z,16.90
2022-09-04T21:15:17.282Z,16.80
2022-09-04T21:18:32.505Z,16.80
2022-09-04T21:21:41.281Z,16.80
2022-09-04T21:24:50.356Z,16.80
2022-09-04T21:27:58.551Z,16.80
2022-09-04T21:31:22.246Z,16.80
2022-09-04T21:34:20.848Z,16.70
2022-09-04T21:36:59.571Z,16.70
2022-09-04T21:39:45.365Z,16.70
2022-09-04T21:42:30.936Z,16.70
2022-09-04T21:45:23.373Z,16.60
2022-09-04T21:48:23.548Z,16.50
2022-09-04T21:51:28.951Z,16.50
2022-09-04T21:55:39.072Z,16.50
2022-09-04T22:02:26.846Z,16.30
2022-09-04T22:02:36.083Z,16.20
2022-09-04T22:03:29.454Z,16.30
2022-09-04T22:06:04.164Z,16.30
2022-09-04T22:13:33.969Z,16.30
2022-09-04T22:13:46.421Z,16.30
2022-09-04T22:14:46.473Z,16.10
2022-09-04T22:17:35.229Z,16.10
2022-09-04T22:20:20.400Z,16.10
2022-09-04T22:23:09.941Z,16.10
2022-09-04T22:26:09.992Z,16.10
2022-09-04T22:28:54.926Z,16.10
2022-09-04T22:31:24.762Z,16.10
2022-09-04T22:34:24.109Z,16.00
2022-09-04T22:37:10.917Z,15.90
2022-09-04T22:39:57.462Z,15.90
2022-09-04T22:42:39.494Z,15.90
2022-09-04T22:45:21.017Z,15.90
2022-09-04T22:48:01.435Z,15.80
2022-09-04T22:50:55.078Z,15.70
2022-09-04T22:53:40.858Z,15.80
2022-09-04T22:56:24.065Z,15.80
2022-09-04T22:59:25.879Z,15.70
2022-09-04T23:01:54.399Z,15.70
2022-09-04T23:04:43.729Z,15.70
2022-09-04T23:13:43.349Z,15.70
2022-09-04T23:13:46.232Z,15.70
2022-09-04T23:14:07.464Z,15.60
2022-09-04T23:17:04.185Z,15.60
2022-09-04T23:24:06.013Z,15.60
2022-09-04T23:26:47.717Z,15.60
2022-09-04T23:26:52.822Z,15.40
2022-09-04T23:29:31.271Z,15.40
2022-09-04T23:32:36.173Z,15.50
2022-09-04T23:35:14.727Z,15.40
2022-09-04T23:38:23.983Z,15.40
2022-09-04T23:40:56.669Z,15.40
2022-09-04T23:43:29.639Z,15.40
2022-09-04T23:46:34.635Z,15.30
2022-09-04T23:49:24.004Z,15.30
2022-09-04T23:52:08.176Z,15.30
2022-09-04T23:54:59.957Z,15.20
2022-09-04T23:57:28.321Z,15.20
